Time;durP1;ratioP1;P1;durP2;ratioP2;P2;SDS_P1;SDS_P2;PMS_P1;PMS_P2;Temp;Humidity;BMP_temperature;BMP_pressure;BME280_temperature;BME280_humidity;BME280_pressure;Samples;Min_cycle;Max_cycle;Signal;HPM_P1;HPM_P2
2021/03/21 00:01:10;;;;;;;6.23;5.40;;;8.10;39.30;;;;;;4996972;28;20052;-63
2021/03/21 00:03:36;;;;;;;8.73;6.33;;;8.10;39.20;;;;;;5007040;28;20076;-63
2021/03/21 00:06:03;;;;;;;7.87;5.60;;;8.10;39.00;;;;;;4997209;28;20133;-63
2021/03/21 00:08:31;;;;;;;7.77;6.03;;;8.00;39.20;;;;;;5013668;28;20459;-64
2021/03/21 00:11:06;;;;;;;9.40;6.20;;;7.90;39.20;;;;;;4996780;28;20037;-64
2021/03/21 00:13:33;;;;;;;6.97;5.70;;;8.00;39.40;;;;;;5000522;28;20065;-64
2021/03/21 00:16:00;;;;;;;9.00;5.70;;;8.00;39.00;;;;;;4998906;28;20050;-64
2021/03/21 00:18:29;;;;;;;9.67;5.47;;;8.00;39.20;;;;;;5000528;28;20041;-64
2021/03/21 00:20:55;;;;;;;8.77;5.03;;;7.70;39.90;;;;;;4996161;28;20030;-64
2021/03/21 00:23:22;;;;;;;8.07;5.27;;;7.80;39.40;;;;;;5007400;28;20109;-63
2021/03/21 00:25:48;;;;;;;6.17;5.47;;;7.80;39.60;;;;;;5007737;28;20054;-63
2021/03/21 00:28:16;;;;;;;6.10;5.23;;;7.80;39.30;;;;;;5003226;28;20533;-63
2021/03/21 00:30:44;;;;;;;5.47;4.93;;;7.90;39.30;;;;;;5004315;28;20070;-63
2021/03/21 00:33:12;;;;;;;9.13;4.73;;;7.90;39.40;;;;;;5001532;28;20041;-63
2021/03/21 00:35:38;;;;;;;6.77;5.67;;;7.70;39.50;;;;;;5006346;28;20571;-62
2021/03/21 00:38:08;;;;;;;6.10;5.43;;;7.70;39.40;;;;;;4997518;28;20137;-63
2021/03/21 00:40:34;;;;;;;7.10;5.00;;;7.70;39.50;;;;;;5006095;28;20438;-63
2021/03/21 00:43:00;;;;;;;7.47;5.57;;;7.60;39.30;;;;;;5005813;28;20503;-63
2021/03/21 00:45:27;;;;;;;5.93;4.90;;;7.60;39.30;;;;;;5008987;28;20045;-63
2021/03/21 00:47:53;;;;;;;6.10;4.53;;;7.70;39.50;;;;;;5001852;28;20092;-63
2021/03/21 00:50:32;;;;;;;5.27;4.60;;;7.70;39.00;;;;;;5009103;28;20133;-64
2021/03/21 00:52:58;;;;;;;6.47;4.70;;;7.70;39.20;;;;;;4999927;28;20088;-64
2021/03/21 00:55:25;;;;;;;6.37;5.33;;;7.60;38.90;;;;;;5003021;28;20089;-63
2021/03/21 00:57:51;;;;;;;6.60;5.03;;;7.50;39.10;;;;;;5002483;28;20042;-64
2021/03/21 01:00:20;;;;;;;6.93;5.67;;;7.50;38.90;;;;;;5005558;28;20408;-63
2021/03/21 01:02:46;;;;;;;6.10;5.10;;;7.50;39.20;;;;;;4999690;28;20508;-63
2021/03/21 01:05:17;;;;;;;6.80;5.77;;;7.50;39.10;;;;;;5005536;28;20046;-63
2021/03/21 01:07:42;;;;;;;7.50;5.30;;;7.70;39.00;;;;;;5002100;28;20073;-63
2021/03/21 01:10:08;;;;;;;6.30;4.90;;;7.80;38.60;;;;;;4996451;28;20061;-63
2021/03/21 01:12:34;;;;;;;5.00;4.50;;;7.50;38.60;;;;;;5002069;28;20478;-64
2021/03/21 01:15:00;;;;;;;8.73;5.43;;;7.70;38.60;;;;;;4997792;28;20035;-63
2021/03/21 01:17:25;;;;;;;6.53;5.10;;;7.60;39.00;;;;;;5004279;28;20046;-64
2021/03/21 01:19:51;;;;;;;6.23;4.87;;;7.60;38.80;;;;;;5003328;28;20120;-63
2021/03/21 01:22:16;;;;;;;6.23;4.97;;;7.50;38.60;;;;;;5002169;28;20450;-63
2021/03/21 01:24:43;;;;;;;5.17;4.43;;;7.50;38.50;;;;;;4997125;28;20045;-63
2021/03/21 01:27:09;;;;;;;6.37;4.40;;;7.50;38.50;;;;;;5003369;28;20045;-63
2021/03/21 01:29:35;;;;;;;7.30;4.97;;;7.60;38.40;;;;;;4998253;28;20046;-63
2021/03/21 01:32:00;;;;;;;6.60;5.07;;;7.50;38.50;;;;;;5000159;28;20041;-63
2021/03/21 01:34:27;;;;;;;6.30;4.53;;;7.50;38.10;;;;;;4997782;28;20101;-63
2021/03/21 01:36:53;;;;;;;5.80;4.37;;;7.60;38.20;;;;;;5006287;28;20052;-64
2021/03/21 01:39:22;;;;;;;5.70;4.73;;;7.50;37.90;;;;;;5002921;28;20041;-63
2021/03/21 01:42:05;;;;;;;5.90;4.80;;;7.60;37.80;;;;;;5002301;28;20046;-62
2021/03/21 01:44:31;;;;;;;5.27;4.37;;;7.60;37.60;;;;;;5002052;28;20095;-63
2021/03/21 01:46:56;;;;;;;6.57;4.63;;;7.60;37.40;;;;;;5001901;28;20030;-63
2021/03/21 01:49:43;;;;;;;5.73;4.47;;;7.60;37.40;;;;;;5001044;28;20041;-64
2021/03/21 01:52:25;;;;;;;6.97;5.20;;;7.70;36.90;;;;;;5006820;28;20046;-63
2021/03/21 01:54:51;;;;;;;6.13;4.60;;;7.60;37.20;;;;;;4998179;28;20121;-64
2021/03/21 01:57:17;;;;;;;5.87;4.50;;;7.50;37.30;;;;;;5005338;28;20034;-64
2021/03/21 01:59:44;;;;;;;5.63;4.17;;;7.60;37.30;;;;;;4999776;28;20026;-63
2021/03/21 02:02:11;;;;;;;4.53;4.07;;;7.60;37.20;;;;;;5001772;28;20507;-63
2021/03/21 02:04:36;;;;;;;5.70;4.73;;;7.60;37.00;;;;;;5004694;28;20085;-64
2021/03/21 02:07:23;;;;;;;5.10;4.43;;;7.70;37.20;;;;;;5001802;28;20046;-63
2021/03/21 02:09:58;;;;;;;6.13;4.83;;;7.60;36.50;;;;;;4984525;28;20045;-63
2021/03/21 02:12:32;;;;;;;7.22;4.43;;;7.70;36.60;;;;;;4998346;28;20046;-63
2021/03/21 02:15:11;;;;;;;6.65;4.95;;;7.60;36.60;;;;;;4998946;28;20046;-64
2021/03/21 02:17:48;;;;;;;5.67;4.30;;;7.60;37.30;;;;;;5003248;28;20042;-63
2021/03/21 02:20:53;;;;;;;5.23;4.67;;;7.50;36.60;;;;;;4984668;28;20053;-63
2021/03/21 02:23:45;;;;;;;4.97;4.30;;;7.60;37.00;;;;;;4977230;28;20108;-63
2021/03/21 02:26:38;;;;;;;5.87;5.00;;;7.50;36.80;;;;;;5003162;28;20050;-63
2021/03/21 02:29:19;;;;;;;6.37;4.77;;;7.50;37.10;;;;;;5006578;28;20080;-64
2021/03/21 02:31:50;;;;;;;5.37;4.37;;;7.50;37.00;;;;;;4981788;28;20035;-63
2021/03/21 02:34:40;;;;;;;5.53;4.47;;;7.50;36.80;;;;;;5008449;28;20030;-63
2021/03/21 02:37:41;;;;;;;6.30;4.33;;;7.40;36.70;;;;;;5014306;28;20049;-64
2021/03/21 02:40:31;;;;;;;4.97;3.83;;;7.40;37.10;;;;;;4982987;28;20057;-63
2021/03/21 02:43:09;;;;;;;6.03;4.70;;;7.30;37.10;;;;;;4965155;28;20111;-63
2021/03/21 02:45:38;;;;;;;5.20;4.37;;;7.40;36.60;;;;;;5005921;28;20038;-63
2021/03/21 02:48:12;;;;;;;5.07;4.13;;;7.30;36.50;;;;;;5001190;28;20046;-63
2021/03/21 02:50:49;;;;;;;5.20;4.00;;;7.30;35.90;;;;;;5003621;28;20400;-63
2021/03/21 02:53:23;;;;;;;7.03;4.57;;;7.30;35.90;;;;;;4982093;28;20034;-63
2021/03/21 02:55:52;;;;;;;6.63;4.33;;;7.20;35.70;;;;;;5006141;28;20149;-63
2021/03/21 02:58:24;;;;;;;5.83;4.60;;;7.20;35.80;;;;;;4997700;28;20276;-62
2021/03/21 03:01:14;;;;;;;5.57;4.30;;;7.20;36.00;;;;;;5001718;28;20054;-63
2021/03/21 03:03:44;;;;;;;5.93;4.53;;;7.10;36.50;;;;;;4999551;28;20037;-62
2021/03/21 03:06:15;;;;;;;6.73;4.00;;;7.10;36.30;;;;;;5004907;28;20050;-63
2021/03/21 03:08:47;;;;;;;6.00;5.10;;;7.10;36.20;;;;;;5003772;28;20042;-63
2021/03/21 03:11:17;;;;;;;6.00;3.97;;;7.20;36.00;;;;;;4993978;28;20364;-62
2021/03/21 03:13:47;;;;;;;5.47;4.80;;;7.10;36.00;;;;;;4998574;28;20376;-63
2021/03/21 03:16:23;;;;;;;5.43;4.33;;;7.10;36.00;;;;;;4997882;28;20129;-62
2021/03/21 03:19:12;;;;;;;5.10;3.93;;;7.10;36.00;;;;;;4989030;28;20034;-63
2021/03/21 03:21:58;;;;;;;4.23;3.77;;;7.10;35.70;;;;;;5002878;28;20038;-57
2021/03/21 03:25:03;;;;;;;5.53;4.57;;;6.90;35.60;;;;;;4997040;28;20041;-63
2021/03/21 03:27:44;;;;;;;4.75;3.75;;;7.00;36.30;;;;;;4980345;28;20049;-64
2021/03/21 03:30:24;;;;;;;5.97;3.90;;;7.00;36.50;;;;;;4999033;28;20046;-63
2021/03/21 03:32:49;;;;;;;6.23;4.30;;;7.00;35.90;;;;;;4999752;28;20038;-64
2021/03/21 03:35:19;;;;;;;5.83;4.40;;;7.00;35.70;;;;;;4995714;28;20042;-64
2021/03/21 03:37:45;;;;;;;6.43;4.40;;;7.00;35.50;;;;;;4996033;28;20053;-63
2021/03/21 03:40:13;;;;;;;5.70;3.97;;;7.00;35.60;;;;;;5001058;28;20050;-63
2021/03/21 03:42:44;;;;;;;6.20;4.07;;;6.90;35.80;;;;;;5004831;28;20396;-59
2021/03/21 03:45:19;;;;;;;4.63;4.10;;;6.90;35.60;;;;;;4996854;28;20062;-64
2021/03/21 03:48:19;;;;;;;5.40;4.18;;;6.90;35.90;;;;;;4998722;28;20467;-63
2021/03/21 03:50:48;;;;;;;5.67;4.07;;;6.90;35.70;;;;;;4980740;28;20030;-62
2021/03/21 03:53:47;;;;;;;6.40;4.80;;;6.80;35.70;;;;;;5004053;28;20084;-63
2021/03/21 03:56:14;;;;;;;5.73;3.90;;;6.80;35.50;;;;;;4995400;28;20069;-63
2021/03/21 03:58:52;;;;;;;6.07;4.30;;;6.80;36.10;;;;;;5004573;28;20506;-64
2021/03/21 04:01:47;;;;;;;6.73;4.57;;;6.70;35.80;;;;;;4997739;28;20050;-63
2021/03/21 04:04:26;;;;;;;5.63;3.80;;;6.80;35.90;;;;;;5005777;28;20038;-63
2021/03/21 04:07:10;;;;;;;5.97;4.67;;;6.70;36.10;;;;;;5004861;28;20046;-64
2021/03/21 04:09:43;;;;;;;5.07;4.13;;;6.80;36.40;;;;;;5021873;28;20395;-64
2021/03/21 04:12:11;;;;;;;4.77;3.83;;;6.80;35.70;;;;;;5005910;28;20042;-64
2021/03/21 04:14:48;;;;;;;5.17;3.93;;;6.80;35.50;;;;;;5004483;28;20045;-63
2021/03/21 04:17:39;;;;;;;8.83;4.33;;;6.80;35.80;;;;;;4967199;28;20069;-64
2021/03/21 04:20:22;;;;;;;8.30;4.23;;;6.80;36.00;;;;;;5000032;28;20038;-64
2021/03/21 04:22:59;;;;;;;5.80;4.17;;;6.70;36.20;;;;;;4986170;28;20046;-63
2021/03/21 04:25:30;;;;;;;5.50;4.40;;;6.60;36.40;;;;;;5000980;28;20040;-64
2021/03/21 04:28:13;;;;;;;5.97;4.10;;;6.60;36.10;;;;;;5007507;28;20488;-64
2021/03/21 04:30:50;;;;;;;4.63;4.10;;;6.60;36.20;;;;;;4997789;28;20061;-63
2021/03/21 04:33:20;;;;;;;5.33;3.90;;;6.70;36.40;;;;;;5007194;28;20733;-64
2021/03/21 04:36:30;;;;;;;5.53;3.80;;;6.60;35.80;;;;;;5004119;28;20449;-63
2021/03/21 04:39:01;;;;;;;5.50;4.30;;;6.70;35.80;;;;;;4977040;28;20054;-64
2021/03/21 04:41:53;;;;;;;4.93;4.40;;;6.60;35.90;;;;;;5005130;28;20037;-64
2021/03/21 04:44:26;;;;;;;6.27;4.00;;;6.60;35.70;;;;;;4980957;28;20074;-63
2021/03/21 04:47:04;;;;;;;4.57;3.77;;;6.60;36.00;;;;;;5004027;28;20034;-63
2021/03/21 04:49:29;;;;;;;7.27;4.17;;;6.60;35.40;;;;;;5004247;28;20050;-64
2021/03/21 04:52:16;;;;;;;3.87;3.40;;;6.60;35.90;;;;;;4995701;28;20037;-64
2021/03/21 04:54:46;;;;;;;4.73;3.13;;;6.60;35.90;;;;;;5001335;28;20116;-63
2021/03/21 04:57:33;;;;;;;4.73;3.73;;;6.50;35.10;;;;;;5003911;28;20046;-63
2021/03/21 05:00:00;;;;;;;5.37;4.20;;;6.60;34.90;;;;;;5007488;28;20050;-64
2021/03/21 05:02:30;;;;;;;7.87;3.80;;;6.50;35.50;;;;;;5000963;28;20041;-64
2021/03/21 05:05:09;;;;;;;6.00;3.83;;;6.50;35.20;;;;;;5006524;28;20042;-63
2021/03/21 05:08:13;;;;;;;5.97;3.63;;;6.50;35.00;;;;;;5003795;28;20151;-64
2021/03/21 05:10:49;;;;;;;5.83;3.90;;;6.50;34.60;;;;;;4949733;28;20117;-63
2021/03/21 05:13:29;;;;;;;4.50;3.80;;;6.40;35.10;;;;;;5001947;28;20459;-64
2021/03/21 05:16:02;;;;;;;5.87;4.23;;;6.50;35.00;;;;;;5008880;28;20073;-64
2021/03/21 05:18:47;;;;;;;5.57;4.03;;;6.40;34.90;;;;;;4998894;28;20088;-64
2021/03/21 05:21:18;;;;;;;4.88;3.65;;;6.40;35.30;;;;;;5008290;28;20450;-64
2021/03/21 05:24:12;;;;;;;5.20;4.27;;;6.40;35.30;;;;;;4999632;28;20042;-63
2021/03/21 05:26:47;;;;;;;5.23;4.07;;;6.40;35.00;;;;;;5003838;28;20547;-64
2021/03/21 05:29:40;;;;;;;4.70;3.60;;;6.40;35.30;;;;;;5004183;28;20041;-63
2021/03/21 05:32:06;;;;;;;6.73;4.33;;;6.40;35.30;;;;;;5008449;28;20184;-64
2021/03/21 05:34:32;;;;;;;4.23;3.53;;;6.40;35.70;;;;;;5003901;28;20049;-64
2021/03/21 05:37:16;;;;;;;6.33;3.50;;;6.40;35.10;;;;;;5003301;28;20045;-64
2021/03/21 05:40:10;;;;;;;5.97;4.17;;;6.40;34.10;;;;;;5001291;28;20445;-63
2021/03/21 05:42:54;;;;;;;5.10;3.43;;;6.50;34.50;;;;;;5005326;28;20076;-64
2021/03/21 05:45:48;;;;;;;6.10;3.95;;;6.50;34.20;;;;;;4975687;28;20118;-64
2021/03/21 05:48:38;;;;;;;5.30;3.63;;;6.50;34.30;;;;;;4978701;28;20388;-64
2021/03/21 05:51:22;;;;;;;6.30;3.47;;;6.40;34.50;;;;;;5009297;28;20462;-64
2021/03/21 05:54:18;;;;;;;5.10;4.00;;;6.40;34.50;;;;;;4960176;28;20519;-64
2021/03/21 05:57:12;;;;;;;7.13;4.07;;;6.40;34.20;;;;;;4968335;28;20104;-64
2021/03/21 06:00:15;;;;;;;5.83;3.50;;;6.40;33.80;;;;;;5003304;28;20472;-64
2021/03/21 06:03:07;;;;;;;4.37;3.50;;;6.40;34.80;;;;;;4957613;28;20104;-63
2021/03/21 06:05:50;;;;;;;5.00;3.57;;;6.40;33.70;;;;;;4999015;28;20035;-64
2021/03/21 06:08:46;;;;;;;3.93;3.10;;;6.40;33.50;;;;;;4965099;28;20104;-64
2021/03/21 06:11:34;;;;;;;5.15;3.45;;;6.40;32.80;;;;;;5002982;28;20034;-63
2021/03/21 06:14:11;;;;;;;7.33;3.77;;;6.30;32.80;;;;;;5003251;28;20042;-64
2021/03/21 06:16:48;;;;;;;3.93;3.20;;;6.40;33.40;;;;;;4999787;28;20041;-64
2021/03/21 06:20:09;;;;;;;5.23;3.80;;;6.40;33.50;;;;;;4978247;28;20180;-64
2021/03/21 06:23:12;;;;;;;4.83;3.53;;;6.50;33.60;;;;;;4977785;28;20116;-64
2021/03/21 06:25:37;;;;;;;6.97;3.23;;;6.50;33.00;;;;;;4958126;28;20049;-64
2021/03/21 06:28:03;;;;;;;4.40;3.43;;;6.50;33.10;;;;;;5004201;28;20041;-64
2021/03/21 06:31:10;;;;;;;3.67;3.23;;;6.60;32.60;;;;;;4994044;28;20096;-64
2021/03/21 06:33:55;;;;;;;5.03;3.60;;;6.60;32.40;;;;;;4984575;28;20041;-64
2021/03/21 06:36:43;;;;;;;5.27;3.17;;;6.50;32.70;;;;;;4981998;28;20046;-64
2021/03/21 06:39:43;;;;;;;4.20;3.43;;;6.70;32.20;;;;;;5003460;28;20339;-57
2021/03/21 06:42:28;;;;;;;4.30;3.40;;;6.70;31.30;;;;;;4999099;28;20403;-60
2021/03/21 06:44:57;;;;;;;3.70;3.17;;;6.80;31.60;;;;;;5002931;28;20026;-64
2021/03/21 06:47:44;;;;;;;3.50;3.00;;;6.90;31.90;;;;;;5000947;28;20030;-64
2021/03/21 06:50:29;;;;;;;3.97;3.13;;;7.00;31.40;;;;;;5000841;28;20064;-63
2021/03/21 06:53:22;;;;;;;3.05;2.75;;;7.00;31.30;;;;;;4997907;28;20061;-64
2021/03/21 06:56:13;;;;;;;4.73;3.37;;;7.00;31.50;;;;;;4977531;28;20510;-64
2021/03/21 06:59:13;;;;;;;5.60;3.67;;;6.90;30.20;;;;;;5002415;28;20092;-64
2021/03/21 07:02:08;;;;;;;3.67;2.87;;;6.80;30.00;;;;;;4976648;28;22893;-64
2021/03/21 07:04:55;;;;;;;5.05;3.63;;;7.00;30.70;;;;;;4980209;28;20088;-64
2021/03/21 07:07:42;;;;;;;3.53;3.00;;;7.00;30.50;;;;;;4960090;28;20514;-64
2021/03/21 07:10:13;;;;;;;5.27;3.33;;;7.10;30.20;;;;;;5006687;28;20038;-64
2021/03/21 07:12:52;;;;;;;3.40;2.70;;;7.20;29.60;;;;;;4998292;28;20034;-55
2021/03/21 07:15:40;;;;;;;4.30;2.70;;;7.20;29.00;;;;;;5005199;28;20483;-64
2021/03/21 07:18:43;;;;;;;5.67;3.13;;;7.00;28.70;;;;;;5013005;28;20553;-65
2021/03/21 07:21:41;;;;;;;3.80;3.30;;;7.20;29.10;;;;;;4964563;28;20045;-64
2021/03/21 07:24:22;;;;;;;5.27;3.47;;;7.20;29.30;;;;;;4977961;28;20037;-64
2021/03/21 07:27:13;;;;;;;5.00;3.47;;;7.40;30.00;;;;;;4978160;28;20050;-63
2021/03/21 07:29:59;;;;;;;3.40;3.10;;;7.70;29.20;;;;;;5002948;28;20041;-64
2021/03/21 07:32:43;;;;;;;4.33;3.37;;;7.80;29.10;;;;;;4975443;28;20032;-64
2021/03/21 07:35:26;;;;;;;3.57;2.47;;;8.00;28.00;;;;;;5002419;28;20041;-66
2021/03/21 07:38:13;;;;;;;3.50;2.80;;;8.10;27.70;;;;;;4977662;28;20140;-66
2021/03/21 07:40:38;;;;;;;5.27;3.27;;;8.10;27.80;;;;;;5008430;28;20061;-65
2021/03/21 07:43:30;;;;;;;3.47;3.17;;;8.20;28.10;;;;;;5006616;28;20041;-65
2021/03/21 07:46:28;;;;;;;3.67;2.50;;;8.20;27.30;;;;;;4983050;28;20495;-65
2021/03/21 07:49:15;;;;;;;3.33;2.90;;;8.20;27.30;;;;;;4949153;28;20041;-64
2021/03/21 07:52:25;;;;;;;3.40;3.00;;;8.40;27.00;;;;;;5005251;28;20076;-63
2021/03/21 07:55:11;;;;;;;2.77;2.50;;;8.40;26.10;;;;;;4954954;28;20046;-65
2021/03/21 07:57:40;;;;;;;3.00;2.70;;;8.50;26.00;;;;;;5015176;28;20041;-65
2021/03/21 08:00:09;;;;;;;4.63;2.90;;;8.60;26.40;;;;;;5005000;28;20443;-65
2021/03/21 08:02:35;;;;;;;3.27;2.53;;;8.60;26.50;;;;;;5003591;28;20045;-65
2021/03/21 08:05:25;;;;;;;3.33;2.83;;;8.70;26.40;;;;;;5006162;28;20108;-65
2021/03/21 08:07:53;;;;;;;3.67;2.37;;;8.80;26.00;;;;;;4981621;28;20248;-64
2021/03/21 08:10:26;;;;;;;3.67;2.63;;;8.70;25.70;;;;;;5004986;28;20117;-64
2021/03/21 08:13:21;;;;;;;2.53;2.20;;;8.70;26.10;;;;;;5002260;28;20041;-64
2021/03/21 08:15:46;;;;;;;3.03;2.53;;;8.60;25.20;;;;;;4979390;28;20049;-65
2021/03/21 08:18:27;;;;;;;3.10;2.40;;;8.60;25.70;;;;;;5005322;28;20084;-64
2021/03/21 08:20:58;;;;;;;4.87;2.63;;;8.80;25.60;;;;;;4998389;28;20045;-64
2021/03/21 08:23:51;;;;;;;3.43;2.40;;;9.00;25.80;;;;;;5007196;28;20036;-64
2021/03/21 08:26:28;;;;;;;2.67;2.13;;;8.90;24.30;;;;;;4977457;28;20511;-65
2021/03/21 08:29:21;;;;;;;3.30;2.77;;;8.90;25.20;;;;;;4992812;28;20503;-64
2021/03/21 08:32:08;;;;;;;3.10;2.37;;;8.90;24.50;;;;;;4984032;28;20042;-65
2021/03/21 08:34:37;;;;;;;2.97;2.27;;;9.00;24.20;;;;;;5002348;28;20033;-65
2021/03/21 08:37:15;;;;;;;3.13;2.43;;;9.10;24.50;;;;;;5005037;28;20050;-65
2021/03/21 08:39:47;;;;;;;4.07;2.70;;;9.10;24.30;;;;;;5007954;28;20049;-64
2021/03/21 08:42:55;;;;;;;3.00;2.70;;;9.20;24.60;;;;;;4995353;28;20053;-65
2021/03/21 08:45:23;;;;;;;2.10;2.00;;;9.30;24.20;;;;;;4919767;28;20114;-65
2021/03/21 08:47:56;;;;;;;3.47;2.50;;;9.20;25.20;;;;;;4948583;28;20059;-65
2021/03/21 08:50:32;;;;;;;2.97;2.50;;;9.20;24.50;;;;;;4982742;28;20029;-65
2021/03/21 08:52:57;;;;;;;3.13;2.33;;;9.30;23.40;;;;;;5009598;28;20100;-65
2021/03/21 08:55:29;;;;;;;3.33;2.40;;;9.40;23.50;;;;;;5001879;28;20034;-65
2021/03/21 08:57:56;;;;;;;3.67;2.20;;;9.50;24.50;;;;;;5000027;28;20120;-62
2021/03/21 09:00:27;;;;;;;2.67;2.30;;;9.60;23.50;;;;;;5003674;28;20045;-68
2021/03/21 09:02:53;;;;;;;2.57;2.37;;;9.60;25.30;;;;;;5004380;28;20057;-68
2021/03/21 09:05:22;;;;;;;9.47;3.43;;;9.30;24.60;;;;;;5007151;28;20092;-68
2021/03/21 09:07:50;;;;;;;3.13;2.13;;;9.20;25.80;;;;;;5004705;28;20077;-68
2021/03/21 09:10:21;;;;;;;3.30;2.60;;;9.30;24.80;;;;;;4998537;28;20045;-68
2021/03/21 09:12:50;;;;;;;2.33;2.13;;;9.40;26.10;;;;;;4998502;28;20602;-69
2021/03/21 09:15:29;;;;;;;2.63;2.40;;;9.50;25.60;;;;;;5002818;28;20044;-69
2021/03/21 09:18:22;;;;;;;2.37;1.93;;;9.40;24.40;;;;;;4996534;28;20034;-70
2021/03/21 09:20:57;;;;;;;3.10;2.40;;;9.50;24.60;;;;;;4976015;28;20192;-69
2021/03/21 09:23:32;;;;;;;3.40;2.40;;;9.70;24.70;;;;;;5001411;28;20069;-69
2021/03/21 09:25:59;;;;;;;2.95;2.75;;;9.60;24.80;;;;;;5003190;28;20065;-69
2021/03/21 09:28:32;;;;;;;5.33;2.63;;;9.70;24.90;;;;;;4997167;28;20042;-70
2021/03/21 09:31:05;;;;;;;2.50;2.30;;;9.80;24.90;;;;;;5004698;28;20057;-69
2021/03/21 09:33:50;;;;;;;3.63;2.60;;;9.90;24.80;;;;;;4998016;28;20065;-69
2021/03/21 09:36:23;;;;;;;2.87;2.63;;;9.90;24.40;;;;;;4976109;28;20483;-68
2021/03/21 09:39:09;;;;;;;3.20;2.90;;;10.10;25.00;;;;;;4995309;28;20377;-66
2021/03/21 09:41:35;;;;;;;3.70;2.33;;;9.80;23.80;;;;;;4995149;28;20046;-67
2021/03/21 09:44:16;;;;;;;2.63;2.43;;;9.80;24.00;;;;;;4986977;28;20052;-68
2021/03/21 09:46:49;;;;;;;3.97;2.83;;;10.10;25.20;;;;;;4989840;28;20046;-67
2021/03/21 09:49:21;;;;;;;3.00;2.70;;;10.00;24.60;;;;;;4986653;28;20042;-67
2021/03/21 09:51:52;;;;;;;3.30;3.00;;;10.00;25.20;;;;;;4990481;28;20042;-67
2021/03/21 09:54:35;;;;;;;3.00;2.70;;;10.10;24.80;;;;;;4987501;28;20129;-67
2021/03/21 09:57:03;;;;;;;3.57;2.97;;;10.10;24.60;;;;;;4991238;28;20489;-67
2021/03/21 09:59:45;;;;;;;3.73;2.83;;;10.00;24.90;;;;;;4985964;28;20053;-67
2021/03/21 10:02:42;;;;;;;3.57;3.27;;;9.90;24.40;;;;;;4990963;28;20049;-67
2021/03/21 10:05:19;;;;;;;4.13;3.30;;;9.60;24.80;;;;;;4962599;28;20046;-67
2021/03/21 10:08:00;;;;;;;2.80;2.60;;;9.60;25.50;;;;;;4989166;28;20052;-67
2021/03/21 10:10:41;;;;;;;3.80;3.37;;;9.60;25.30;;;;;;4987284;28;20046;-67
2021/03/21 10:13:10;;;;;;;3.60;3.03;;;9.50;25.40;;;;;;4991366;28;20049;-67
2021/03/21 10:16:09;;;;;;;3.20;2.90;;;9.40;24.90;;;;;;4986583;28;20049;-67
2021/03/21 10:18:43;;;;;;;3.67;3.10;;;9.60;25.20;;;;;;4967602;28;20046;-67
2021/03/21 10:21:12;;;;;;;4.40;2.95;;;9.70;25.40;;;;;;4987316;28;20049;-67
2021/03/21 10:24:00;;;;;;;3.50;3.20;;;9.60;25.70;;;;;;4990645;28;20038;-67
2021/03/21 10:26:29;;;;;;;5.80;3.30;;;9.80;25.40;;;;;;4965584;28;20042;-67
2021/03/21 10:29:22;;;;;;;3.73;3.23;;;9.70;25.70;;;;;;4995033;28;20566;-67
2021/03/21 10:31:47;;;;;;;3.40;3.10;;;9.90;25.40;;;;;;4972968;28;20559;-67
2021/03/21 10:34:13;;;;;;;3.20;2.87;;;10.00;24.40;;;;;;4993006;28;20041;-66
2021/03/21 10:36:42;;;;;;;3.10;2.80;;;10.00;24.50;;;;;;4990518;28;20056;-67
2021/03/21 10:39:23;;;;;;;3.57;3.27;;;10.10;25.70;;;;;;4991306;28;20380;-67
2021/03/21 10:42:14;;;;;;;3.73;3.37;;;10.20;24.50;;;;;;4955592;28;20042;-67
2021/03/21 10:44:40;;;;;;;4.17;3.63;;;10.30;25.10;;;;;;4996150;28;20034;-68
2021/03/21 10:47:10;;;;;;;4.30;3.33;;;10.30;24.80;;;;;;4988315;28;20068;-68
2021/03/21 10:49:50;;;;;;;4.63;3.30;;;10.20;24.90;;;;;;4991775;28;20041;-68
2021/03/21 10:52:18;;;;;;;4.10;3.30;;;10.20;24.90;;;;;;4990213;28;20129;-68
2021/03/21 10:54:44;;;;;;;4.43;3.30;;;10.10;24.60;;;;;;4993638;28;20042;-67
2021/03/21 10:57:34;;;;;;;4.30;3.90;;;10.20;24.90;;;;;;4988130;28;20052;-68
2021/03/21 11:00:19;;;;;;;5.83;3.23;;;10.10;24.60;;;;;;4956447;28;20408;-68
2021/03/21 11:02:59;;;;;;;3.37;3.07;;;10.00;24.40;;;;;;4988617;28;20514;-68
2021/03/21 11:05:44;;;;;;;4.07;3.47;;;9.80;25.00;;;;;;4993832;28;20026;-68
2021/03/21 11:08:13;;;;;;;4.23;3.70;;;9.90;25.70;;;;;;5001833;28;20049;-68
2021/03/21 11:10:44;;;;;;;3.17;2.87;;;9.90;25.40;;;;;;5004060;28;20491;-68
2021/03/21 11:13:16;;;;;;;3.77;3.47;;;9.80;25.10;;;;;;5002432;28;20121;-68
2021/03/21 11:15:45;;;;;;;4.77;3.47;;;10.00;25.00;;;;;;4998351;28;20499;-68
2021/03/21 11:18:25;;;;;;;4.17;3.60;;;10.00;25.20;;;;;;5000102;28;20491;-68
2021/03/21 11:21:07;;;;;;;3.53;3.23;;;10.20;25.40;;;;;;4968053;28;20045;-68
2021/03/21 11:23:53;;;;;;;4.17;3.30;;;10.30;25.00;;;;;;4998806;28;20076;-68
2021/03/21 11:26:25;;;;;;;4.73;3.67;;;10.40;24.80;;;;;;4977618;28;20045;-67
2021/03/21 11:29:05;;;;;;;4.27;3.50;;;10.30;24.70;;;;;;5002882;28;20034;-68
2021/03/21 11:31:33;;;;;;;4.00;3.60;;;10.30;24.00;;;;;;5009866;28;20050;-68
2021/03/21 11:34:13;;;;;;;6.87;4.13;;;10.40;25.00;;;;;;4999450;28;20124;-68
2021/03/21 11:36:39;;;;;;;6.10;3.70;;;10.40;23.60;;;;;;5003332;28;20050;-68
2021/03/21 11:39:32;;;;;;;3.67;3.03;;;10.30;23.90;;;;;;4998427;28;20037;-67
2021/03/21 11:41:57;;;;;;;5.80;3.40;;;10.40;23.20;;;;;;4986604;28;20490;-68
2021/03/21 11:44:31;;;;;;;4.20;3.70;;;10.50;23.80;;;;;;5002104;28;20040;-68
2021/03/21 11:47:20;;;;;;;4.20;3.57;;;10.70;24.00;;;;;;5006932;28;20509;-67
2021/03/21 11:49:46;;;;;;;5.40;3.67;;;10.90;23.50;;;;;;4996948;28;20492;-68
2021/03/21 11:52:13;;;;;;;4.00;3.60;;;10.80;23.70;;;;;;5001984;28;20046;-68
2021/03/21 11:54:39;;;;;;;3.60;3.30;;;11.00;23.40;;;;;;4987805;28;20049;-68
2021/03/21 11:57:12;;;;;;;4.37;3.97;;;11.30;23.80;;;;;;4988647;28;20121;-67
2021/03/21 11:59:49;;;;;;;5.13;3.77;;;11.50;23.70;;;;;;4985997;28;20061;-66
2021/03/21 12:02:57;;;;;;;5.43;4.47;;;11.80;22.90;;;;;;4993455;28;20099;-67
2021/03/21 12:05:27;;;;;;;4.40;3.90;;;12.20;22.90;;;;;;4943291;28;20496;-67
2021/03/21 12:08:05;;;;;;;3.70;3.40;;;12.20;23.20;;;;;;4977976;28;20038;-67
2021/03/21 12:10:34;;;;;;;4.50;4.10;;;12.70;22.80;;;;;;4982258;28;20124;-67
2021/03/21 12:13:31;;;;;;;4.60;4.17;;;12.80;22.10;;;;;;4993137;28;20034;-64
2021/03/21 12:15:59;;;;;;;5.00;3.90;;;13.00;22.50;;;;;;4981057;28;20125;-64
2021/03/21 12:18:27;;;;;;;4.60;4.10;;;13.00;23.10;;;;;;4997899;28;20573;-64
2021/03/21 12:20:55;;;;;;;3.90;3.50;;;13.20;21.70;;;;;;4994597;28;20046;-65
2021/03/21 12:23:41;;;;;;;5.40;3.77;;;13.30;22.00;;;;;;5001539;28;20037;-64
2021/03/21 12:26:09;;;;;;;4.03;3.55;;;13.90;21.00;;;;;;4995837;28;20128;-65
2021/03/21 12:28:37;;;;;;;4.38;3.97;;;16.50;20.50;;;;;;5005928;28;20038;-64
2021/03/21 12:31:09;;;;;;;4.13;3.72;;;21.30;16.00;;;;;;4993979;28;20050;-65
2021/03/21 12:33:36;;;;;;;4.72;4.25;;;22.30;14.90;;;;;;4994240;28;20030;-66
2021/03/21 12:36:08;;;;;;;5.60;4.82;;;23.80;13.70;;;;;;4991315;28;20042;-66
2021/03/21 12:38:38;;;;;;;5.28;4.30;;;23.70;13.10;;;;;;4992337;28;20434;-66
2021/03/21 12:41:31;;;;;;;4.40;4.00;;;23.60;14.20;;;;;;4988298;28;20042;-66
2021/03/21 12:44:24;;;;;;;6.25;4.10;;;22.40;13.00;;;;;;4969212;28;20407;-67
2021/03/21 12:47:06;;;;;;;4.78;4.32;;;21.90;13.70;;;;;;4966938;28;20495;-67
2021/03/21 12:49:40;;;;;;;4.50;4.10;;;22.10;14.00;;;;;;4991756;28;20125;-67
2021/03/21 12:52:10;;;;;;;4.15;3.75;;;23.30;14.20;;;;;;4990327;28;20395;-67
2021/03/21 12:54:36;;;;;;;4.82;4.32;;;23.60;13.90;;;;;;4992412;28;20177;-67
2021/03/21 12:57:02;;;;;;;4.70;4.30;;;23.90;13.80;;;;;;4989026;28;20091;-67
2021/03/21 12:59:28;;;;;;;6.15;4.22;;;24.30;13.40;;;;;;4992672;28;20050;-65
2021/03/21 13:01:54;;;;;;;4.28;3.97;;;24.80;13.00;;;;;;4988445;28;20038;-64
2021/03/21 13:04:20;;;;;;;4.40;3.60;;;26.00;11.60;;;;;;4993335;28;20588;-65
2021/03/21 13:06:45;;;;;;;5.28;4.60;;;27.60;12.20;;;;;;4989734;28;20056;-64
2021/03/21 13:09:11;;;;;;;4.80;4.40;;;28.30;11.50;;;;;;4996027;28;20042;-65
2021/03/21 13:11:38;;;;;;;5.47;4.13;;;29.60;11.40;;;;;;4992371;28;20038;-66
2021/03/21 13:14:05;;;;;;;5.72;5.22;;;30.50;11.10;;;;;;4995021;28;20144;-64
2021/03/21 13:16:32;;;;;;;6.18;4.70;;;30.90;10.30;;;;;;4998019;28;20292;-65
2021/03/21 13:18:58;;;;;;;4.90;4.50;;;30.00;9.40;;;;;;4996953;28;20507;-66
2021/03/21 13:21:24;;;;;;;4.97;4.47;;;30.00;10.30;;;;;;4995347;28;20384;-65
2021/03/21 13:23:50;;;;;;;4.68;4.28;;;29.80;10.60;;;;;;4999621;28;20045;-65
2021/03/21 13:26:16;;;;;;;5.03;4.53;;;30.60;9.00;;;;;;5001794;28;20065;-64
2021/03/21 13:28:42;;;;;;;4.20;3.90;;;31.00;10.10;;;;;;4992432;28;20053;-66
2021/03/21 13:31:08;;;;;;;5.00;4.60;;;31.50;9.90;;;;;;5002905;28;20484;-65
2021/03/21 13:33:35;;;;;;;4.75;4.38;;;32.60;9.80;;;;;;4997666;28;20359;-66
2021/03/21 13:36:01;;;;;;;4.97;4.57;;;31.80;8.80;;;;;;4997880;28;20045;-66
2021/03/21 13:38:29;;;;;;;4.80;4.40;;;32.10;8.10;;;;;;4994864;28;20042;-66
2021/03/21 13:40:57;;;;;;;4.10;3.75;;;30.90;8.10;;;;;;4993759;28;20042;-66
2021/03/21 13:43:24;;;;;;;5.10;4.70;;;31.70;8.90;;;;;;4995955;28;20396;-67
2021/03/21 13:45:52;;;;;;;4.28;3.97;;;31.70;8.00;;;;;;5003180;28;20120;-66